Time;durP1;ratioP1;P1;durP2;ratioP2;P2;SDS_P1;SDS_P2;PMS_P1;PMS_P2;Temp;Humidity;BMP_temperature;BMP_pressure;BME280_temperature;BME280_humidity;BME280_pressure;Samples;Min_cycle;Max_cycle;Signal;HPM_P1;HPM_P2
2022/01/02 00:01:50;;;;;;;25.75;11.80;;;9.70;99.90;;;;;;5033680;28;20033;-52
2022/01/02 00:04:22;;;;;;;23.70;10.68;;;9.70;99.90;;;;;;5034825;28;20026;-52
2022/01/02 00:06:52;;;;;;;27.17;11.20;;;9.70;99.90;;;;;;5033547;28;20021;-53
2022/01/02 00:09:33;;;;;;;22.50;10.15;;;9.80;99.90;;;;;;5035226;28;20076;-51
2022/01/02 00:12:12;;;;;;;22.75;10.48;;;9.80;99.90;;;;;;5033490;28;20108;-50
2022/01/02 00:14:43;;;;;;;30.13;11.38;;;9.80;99.90;;;;;;5034743;28;20045;-55
2022/01/02 00:17:09;;;;;;;24.08;11.20;;;9.80;99.90;;;;;;5033230;28;20072;-53
2022/01/02 00:19:45;;;;;;;24.20;11.00;;;9.80;99.90;;;;;;5033719;28;20116;-56
2022/01/02 00:22:48;;;;;;;21.95;10.82;;;9.80;99.90;;;;;;5033135;28;20029;-53
2022/01/02 00:25:26;;;;;;;23.95;11.35;;;9.70;99.90;;;;;;5034414;28;20017;-52
2022/01/02 00:27:52;;;;;;;24.52;11.38;;;9.70;99.90;;;;;;5032595;28;20108;-55
2022/01/02 00:30:18;;;;;;;22.33;11.00;;;9.70;99.90;;;;;;5034362;28;20026;-52
2022/01/02 00:32:44;;;;;;;24.50;11.23;;;9.70;99.90;;;;;;5032487;28;20043;-57
2022/01/02 00:35:10;;;;;;;25.65;12.25;;;9.60;99.90;;;;;;5013121;28;20034;-56
2022/01/02 00:37:36;;;;;;;23.35;11.88;;;9.60;99.90;;;;;;5014517;28;20443;-56
2022/01/02 00:40:03;;;;;;;24.25;12.30;;;9.60;99.90;;;;;;5013124;28;20030;-49
2022/01/02 00:42:37;;;;;;;26.52;12.40;;;9.50;99.90;;;;;;5013081;28;20022;-53
2022/01/02 00:45:27;;;;;;;25.15;11.73;;;9.50;99.90;;;;;;5014968;28;20080;-56
2022/01/02 00:48:13;;;;;;;24.77;10.82;;;9.40;99.90;;;;;;5005359;28;20125;-56
2022/01/02 00:51:01;;;;;;;24.00;12.07;;;9.40;99.90;;;;;;5013766;28;20026;-50
2022/01/02 00:53:33;;;;;;;22.23;11.10;;;9.30;99.90;;;;;;5012872;28;20033;-50
2022/01/02 00:56:00;;;;;;;28.88;12.30;;;9.40;99.90;;;;;;5012940;28;20140;-55
2022/01/02 00:58:53;;;;;;;22.63;11.35;;;9.40;99.90;;;;;;5013087;28;20096;-53
2022/01/02 01:01:27;;;;;;;24.75;12.10;;;9.40;99.90;;;;;;5014358;28;20022;-49
2022/01/02 01:03:54;;;;;;;22.23;11.50;;;9.30;99.90;;;;;;5014230;28;20030;-54
2022/01/02 01:06:27;;;;;;;26.63;11.63;;;9.30;99.90;;;;;;5013832;28;20024;-50
2022/01/02 01:08:56;;;;;;;24.63;11.18;;;9.30;99.90;;;;;;5012724;28;20030;-53
2022/01/02 01:11:26;;;;;;;22.75;11.25;;;9.50;99.90;;;;;;5012572;28;20424;-52
2022/01/02 01:13:53;;;;;;;22.25;12.23;;;9.40;99.90;;;;;;5012586;28;20022;-52
2022/01/02 01:16:19;;;;;;;26.83;11.93;;;9.40;99.90;;;;;;5012452;28;20025;-50
2022/01/02 01:18:45;;;;;;;24.98;12.57;;;9.20;99.90;;;;;;5013551;28;20026;-49
2022/01/02 01:21:10;;;;;;;28.05;12.07;;;9.30;99.90;;;;;;5013791;28;20109;-52
2022/01/02 01:23:36;;;;;;;25.35;11.27;;;9.30;99.90;;;;;;5013720;28;20124;-54
2022/01/02 01:26:06;;;;;;;27.63;12.10;;;9.40;99.90;;;;;;5013317;28;20030;-53
2022/01/02 01:28:32;;;;;;;24.33;11.43;;;9.60;99.90;;;;;;5013703;28;20022;-53
2022/01/02 01:30:58;;;;;;;21.60;10.88;;;9.60;99.90;;;;;;5012368;28;20029;-50
2022/01/02 01:33:23;;;;;;;25.45;12.00;;;9.50;99.90;;;;;;5013882;28;20029;-51
2022/01/02 01:35:49;;;;;;;28.15;12.32;;;9.50;99.90;;;;;;5013586;28;20022;-52
2022/01/02 01:38:15;;;;;;;27.55;13.82;;;9.40;99.90;;;;;;5013546;28;20022;-50
2022/01/02 01:40:49;;;;;;;21.58;12.25;;;9.20;99.90;;;;;;5011477;28;20026;-51
2022/01/02 01:43:15;;;;;;;25.35;12.52;;;9.10;99.90;;;;;;5013126;28;20030;-52
2022/01/02 01:45:40;;;;;;;25.73;13.95;;;9.10;99.90;;;;;;5017571;28;20061;-49
2022/01/02 01:48:07;;;;;;;26.15;12.52;;;9.10;99.90;;;;;;5013885;28;20045;-51
2022/01/02 01:50:37;;;;;;;24.50;12.90;;;9.00;99.90;;;;;;5013602;28;20104;-54
2022/01/02 01:53:03;;;;;;;29.80;12.57;;;9.00;99.90;;;;;;5012128;28;20037;-50
2022/01/02 01:55:29;;;;;;;28.90;13.27;;;9.00;99.90;;;;;;5012176;28;20018;-50
2022/01/02 01:57:55;;;;;;;29.73;13.55;;;8.90;99.90;;;;;;5012887;28;20053;-53
2022/01/02 02:00:22;;;;;;;36.45;14.40;;;8.90;99.90;;;;;;5013295;28;20062;-51
2022/01/02 02:02:49;;;;;;;35.88;15.23;;;8.80;99.90;;;;;;5012129;28;20029;-52
2022/01/02 02:05:15;;;;;;;40.47;16.38;;;8.90;99.90;;;;;;5013278;28;20026;-48
2022/01/02 02:07:43;;;;;;;34.58;15.20;;;8.80;99.90;;;;;;5013250;28;20108;-50
2022/01/02 02:10:13;;;;;;;30.10;15.05;;;8.80;99.90;;;;;;5012992;28;20030;-52
2022/01/02 02:12:42;;;;;;;33.67;14.55;;;8.90;99.90;;;;;;5012029;28;20473;-49
2022/01/02 02:15:09;;;;;;;31.17;14.00;;;9.00;99.90;;;;;;5013450;28;20094;-51
2022/01/02 02:17:36;;;;;;;28.65;14.00;;;9.10;99.90;;;;;;5012733;28;20022;-51
2022/01/02 02:20:11;;;;;;;38.17;15.43;;;9.20;99.90;;;;;;5013115;28;20026;-55
2022/01/02 02:22:41;;;;;;;28.75;13.75;;;9.30;99.90;;;;;;5013033;28;20030;-52
2022/01/02 02:25:09;;;;;;;35.17;14.63;;;9.30;99.90;;;;;;5013163;28;20112;-49
2022/01/02 02:27:35;;;;;;;30.58;14.45;;;9.30;99.90;;;;;;5012936;28;20026;-55
2022/01/02 02:30:01;;;;;;;32.75;14.80;;;9.30;99.90;;;;;;5011740;28;20026;-53
2022/01/02 02:32:27;;;;;;;41.47;16.67;;;9.30;99.90;;;;;;5012164;28;20032;-49
2022/01/02 02:35:16;;;;;;;36.92;15.30;;;9.30;99.90;;;;;;5013099;28;20094;-52
2022/01/02 02:37:44;;;;;;;39.00;16.00;;;9.30;99.90;;;;;;5013050;28;20022;-51
2022/01/02 02:40:11;;;;;;;33.20;14.77;;;9.30;99.90;;;;;;5012984;28;20061;-49
2022/01/02 02:42:47;;;;;;;34.63;14.52;;;9.40;99.90;;;;;;5011681;28;20026;-50
2022/01/02 02:51:13;;;;;;;36.78;13.50;;;9.10;99.90;;;;;;5013806;28;20033;-54
2022/01/02 02:53:43;;;;;;;30.77;14.10;;;9.10;99.90;;;;;;5015082;28;20126;-55
2022/01/02 02:56:25;;;;;;;30.27;13.70;;;9.10;99.90;;;;;;5016302;28;20044;-54
2022/01/02 02:58:55;;;;;;;25.80;11.85;;;9.20;99.90;;;;;;5016241;28;20017;-52
2022/01/02 03:01:22;;;;;;;24.85;12.25;;;9.20;99.90;;;;;;5016281;28;20025;-53
2022/01/02 03:03:49;;;;;;;30.80;13.30;;;9.30;99.90;;;;;;5015261;28;20030;-51
2022/01/02 03:06:15;;;;;;;38.35;13.98;;;9.40;99.90;;;;;;5014886;28;20109;-52
2022/01/02 03:08:43;;;;;;;35.17;13.73;;;9.40;99.90;;;;;;5015946;28;20064;-51
2022/01/02 03:11:13;;;;;;;34.35;13.88;;;9.40;99.90;;;;;;5014695;28;20034;-53
2022/01/02 03:13:39;;;;;;;36.70;16.00;;;9.40;99.90;;;;;;5016006;28;20029;-52
2022/01/02 03:16:05;;;;;;;31.95;14.23;;;9.40;99.90;;;;;;5015966;28;20026;-54
2022/01/02 03:18:31;;;;;;;33.38;14.85;;;9.50;99.90;;;;;;5014596;28;20018;-53
2022/01/02 03:20:57;;;;;;;32.58;15.27;;;9.50;99.90;;;;;;5014879;28;20101;-55
2022/01/02 03:23:23;;;;;;;34.22;14.90;;;9.50;99.90;;;;;;5014584;28;20133;-52
2022/01/02 03:25:48;;;;;;;32.67;13.68;;;9.40;99.90;;;;;;5014625;28;20029;-54
2022/01/02 03:28:14;;;;;;;30.38;12.95;;;9.50;99.90;;;;;;5014740;28;20397;-51
2022/01/02 03:30:41;;;;;;;33.60;14.60;;;9.60;99.90;;;;;;5014843;28;20030;-54
2022/01/02 03:33:06;;;;;;;35.50;15.13;;;9.50;99.90;;;;;;5015492;28;20084;-53
2022/01/02 03:35:32;;;;;;;32.13;15.18;;;9.50;99.90;;;;;;5014635;28;20026;-55
2022/01/02 03:37:58;;;;;;;35.33;13.30;;;9.50;99.90;;;;;;5014155;28;20022;-54
2022/01/02 03:40:23;;;;;;;30.92;11.93;;;9.60;99.90;;;;;;5014860;28;20554;-55
2022/01/02 03:42:49;;;;;;;33.53;13.52;;;9.60;99.90;;;;;;5015387;28;20026;-52
2022/01/02 03:45:15;;;;;;;30.15;12.18;;;9.50;99.90;;;;;;5015598;28;20045;-51
2022/01/02 03:47:40;;;;;;;32.65;12.10;;;9.50;99.90;;;;;;5015262;28;20080;-51
2022/01/02 03:50:07;;;;;;;25.13;11.05;;;9.40;99.90;;;;;;5015194;28;20084;-52
2022/01/02 03:52:32;;;;;;;20.98;9.70;;;9.40;99.90;;;;;;5013890;28;20026;-51
2022/01/02 03:54:58;;;;;;;46.63;11.35;;;9.50;99.90;;;;;;5014052;28;20029;-51
2022/01/02 03:57:24;;;;;;;28.73;10.45;;;9.40;99.90;;;;;;5014067;28;20022;-51
2022/01/02 03:59:51;;;;;;;25.73;11.68;;;9.40;99.90;;;;;;5015422;28;20054;-52
2022/01/02 04:02:16;;;;;;;30.02;11.57;;;9.40;99.90;;;;;;5014452;28;20034;-54
2022/01/02 04:04:42;;;;;;;23.85;11.43;;;9.40;99.90;;;;;;5013632;28;20559;-54
2022/01/02 04:07:08;;;;;;;27.38;11.80;;;9.40;99.90;;;;;;5015111;28;20030;-55
2022/01/02 04:09:34;;;;;;;39.72;11.40;;;9.30;99.90;;;;;;5013671;28;20029;-55
2022/01/02 04:12:00;;;;;;;24.52;11.38;;;9.40;99.90;;;;;;5015083;28;20022;-50
2022/01/02 04:14:25;;;;;;;27.10;12.07;;;9.40;99.90;;;;;;5014045;28;20037;-52
2022/01/02 04:16:51;;;;;;;30.13;13.00;;;9.40;99.90;;;;;;5014157;28;20025;-55
2022/01/02 04:19:17;;;;;;;38.67;13.93;;;9.40;99.90;;;;;;5013582;28;20063;-49
2022/01/02 04:21:43;;;;;;;29.90;12.35;;;9.50;99.90;;;;;;5014684;28;20022;-54
2022/01/02 04:24:08;;;;;;;31.35;13.32;;;9.50;99.90;;;;;;5014697;28;20396;-55
2022/01/02 04:26:34;;;;;;;27.10;13.18;;;9.60;99.90;;;;;;5013366;28;20018;-53
2022/01/02 04:29:00;;;;;;;25.92;13.40;;;9.60;99.90;;;;;;5013377;28;20161;-52
2022/01/02 04:31:26;;;;;;;30.35;13.52;;;9.60;99.90;;;;;;5013299;28;20117;-52
2022/01/02 04:33:51;;;;;;;32.22;12.65;;;9.50;99.90;;;;;;5013258;28;20091;-53
2022/01/02 04:36:17;;;;;;;34.67;12.85;;;9.50;99.90;;;;;;5014374;28;20026;-52
2022/01/02 04:38:45;;;;;;;22.13;10.05;;;9.60;99.90;;;;;;5014492;28;20080;-51
2022/01/02 04:41:11;;;;;;;34.00;12.93;;;9.60;99.90;;;;;;5013993;28;20057;-54
2022/01/02 04:43:36;;;;;;;35.22;13.38;;;9.50;99.90;;;;;;5014500;28;20062;-51
2022/01/02 04:46:02;;;;;;;44.55;15.43;;;9.50;99.90;;;;;;5014551;28;20026;-51
2022/01/02 04:48:28;;;;;;;28.83;13.00;;;9.40;99.90;;;;;;5014192;28;20064;-49
2022/01/02 04:50:54;;;;;;;34.22;15.20;;;9.50;99.90;;;;;;5012757;28;20029;-52
2022/01/02 04:53:21;;;;;;;31.60;13.77;;;9.60;99.90;;;;;;5012944;28;20030;-52
2022/01/02 04:55:47;;;;;;;42.13;14.43;;;9.90;99.90;;;;;;5014155;28;20049;-51
2022/01/02 04:58:12;;;;;;;37.47;14.77;;;9.80;99.90;;;;;;5013078;28;20056;-51
2022/01/02 05:00:38;;;;;;;37.72;15.93;;;9.30;99.90;;;;;;5012822;28;20025;-48
2022/01/02 05:03:04;;;;;;;36.40;15.43;;;9.20;99.90;;;;;;5012808;28;20076;-51
2022/01/02 05:05:30;;;;;;;38.05;16.52;;;9.20;99.90;;;;;;5012769;28;20026;-52
2022/01/02 05:07:55;;;;;;;37.80;16.40;;;9.30;99.90;;;;;;5013260;28;20026;-49
2022/01/02 05:10:21;;;;;;;41.20;16.83;;;9.40;99.90;;;;;;5012596;28;20496;-50
2022/01/02 05:12:46;;;;;;;36.90;16.33;;;9.30;99.90;;;;;;5013898;28;20045;-49
2022/01/02 05:15:12;;;;;;;40.38;16.60;;;9.30;99.90;;;;;;5012487;28;20026;-55
2022/01/02 05:17:38;;;;;;;38.42;16.55;;;9.30;99.90;;;;;;5013806;28;20022;-50
2022/01/02 05:20:05;;;;;;;37.60;15.77;;;9.30;99.90;;;;;;5012487;28;20124;-50
2022/01/02 05:22:31;;;;;;;35.13;15.50;;;9.30;99.90;;;;;;5012416;28;20061;-51
2022/01/02 05:24:57;;;;;;;32.22;14.02;;;9.40;99.90;;;;;;5013698;28;20065;-53
2022/01/02 05:27:22;;;;;;;32.42;15.55;;;9.60;99.90;;;;;;5013603;28;20107;-54
2022/01/02 05:29:48;;;;;;;39.75;16.08;;;9.80;99.90;;;;;;5012650;28;20026;-51
2022/01/02 05:32:13;;;;;;;34.97;16.50;;;9.60;99.90;;;;;;5012277;28;20393;-53
2022/01/02 05:34:39;;;;;;;36.53;15.43;;;9.50;99.90;;;;;;5012351;28;20018;-50
2022/01/02 05:37:05;;;;;;;39.40;16.80;;;9.50;99.90;;;;;;5012235;28;20022;-51
2022/01/02 05:39:31;;;;;;;37.63;16.58;;;9.40;99.90;;;;;;5012367;28;20032;-52
2022/01/02 05:42:06;;;;;;;33.55;15.50;;;9.30;99.90;;;;;;5013476;28;20101;-49
2022/01/02 05:44:31;;;;;;;39.22;17.70;;;9.30;99.90;;;;;;5013501;28;20105;-50
2022/01/02 05:46:57;;;;;;;38.28;16.83;;;9.40;99.90;;;;;;5012181;28;20117;-52
2022/01/02 05:49:23;;;;;;;36.33;17.33;;;9.30;99.90;;;;;;5013460;28;20046;-50
2022/01/02 05:51:49;;;;;;;38.97;16.27;;;9.30;99.90;;;;;;5013537;28;20528;-49
2022/01/02 05:54:14;;;;;;;37.05;16.23;;;9.30;99.90;;;;;;5012192;28;20434;-52
2022/01/02 05:56:40;;;;;;;35.72;16.83;;;9.20;99.90;;;;;;5012821;28;20026;-50
2022/01/02 05:59:06;;;;;;;42.95;17.10;;;9.20;99.90;;;;;;5012095;28;20030;-53
2022/01/02 06:01:31;;;;;;;43.92;17.00;;;9.20;99.90;;;;;;5013328;28;20025;-53
2022/01/02 06:03:57;;;;;;;41.20;17.58;;;9.10;99.90;;;;;;5013570;28;20064;-51
2022/01/02 06:06:23;;;;;;;44.70;17.60;;;9.00;99.90;;;;;;5013259;28;20057;-52
2022/01/02 06:08:48;;;;;;;41.92;17.60;;;9.10;99.90;;;;;;5012168;28;20094;-50
2022/01/02 06:11:14;;;;;;;37.03;16.50;;;9.10;99.90;;;;;;5011974;28;20033;-49
2022/01/02 06:13:40;;;;;;;39.30;16.00;;;9.10;99.90;;;;;;5013522;28;20025;-55
2022/01/02 06:16:07;;;;;;;37.17;16.38;;;9.10;99.90;;;;;;5013343;28;20018;-49
2022/01/02 06:18:33;;;;;;;33.17;16.25;;;9.10;99.90;;;;;;5011861;28;20022;-51
2022/01/02 06:20:59;;;;;;;41.38;17.88;;;9.10;99.90;;;;;;5012184;28;20030;-48
2022/01/02 06:23:24;;;;;;;42.83;16.05;;;8.90;99.90;;;;;;5012174;28;20030;-51
2022/01/02 06:25:50;;;;;;;36.85;16.95;;;8.80;99.90;;;;;;5012529;28;20022;-49
2022/01/02 06:28:16;;;;;;;40.55;16.92;;;8.60;99.90;;;;;;5016343;28;20164;-50
2022/01/02 06:30:41;;;;;;;41.00;17.73;;;8.70;99.90;;;;;;5017152;28;20465;-49
2022/01/02 06:33:07;;;;;;;40.58;17.63;;;8.80;99.90;;;;;;5016680;28;20077;-49
2022/01/02 06:35:34;;;;;;;39.25;17.08;;;8.90;99.90;;;;;;5016690;28;20018;-52
2022/01/02 06:38:20;;;;;;;39.28;16.15;;;8.90;99.90;;;;;;5016559;28;20105;-49
2022/01/02 06:40:46;;;;;;;39.90;17.33;;;8.90;99.90;;;;;;5014840;28;20042;-54
2022/01/02 06:43:16;;;;;;;42.85;17.65;;;8.80;99.90;;;;;;5016660;28;20049;-50
2022/01/02 06:45:43;;;;;;;46.08;17.77;;;8.70;99.90;;;;;;5015337;28;20056;-53
2022/01/02 06:48:09;;;;;;;46.67;19.30;;;8.60;99.90;;;;;;5016375;28;20042;-51
2022/01/02 06:50:34;;;;;;;49.17;19.30;;;8.50;99.90;;;;;;5015424;28;20026;-52
2022/01/02 06:53:00;;;;;;;45.75;18.98;;;8.50;99.90;;;;;;5015077;28;20117;-55
2022/01/02 06:55:26;;;;;;;43.17;17.27;;;8.50;99.90;;;;;;5015088;28;20053;-52
2022/01/02 06:57:51;;;;;;;36.50;16.08;;;8.50;99.90;;;;;;5015316;28;20072;-52
2022/01/02 07:00:17;;;;;;;37.88;16.33;;;8.70;99.90;;;;;;5014960;28;20037;-51
2022/01/02 07:02:43;;;;;;;40.47;17.10;;;8.80;99.90;;;;;;5016249;28;20030;-50
2022/01/02 07:05:09;;;;;;;35.70;15.25;;;8.80;99.90;;;;;;5016148;28;20030;-52
2022/01/02 07:07:45;;;;;;;42.13;16.98;;;8.80;99.90;;;;;;5015189;28;20030;-50
2022/01/02 07:10:12;;;;;;;42.28;16.38;;;8.90;99.90;;;;;;5031769;28;20029;-55
2022/01/02 07:12:38;;;;;;;39.95;17.08;;;8.90;99.90;;;;;;5034533;28;20061;-53
2022/01/02 07:15:05;;;;;;;40.50;16.65;;;9.00;99.90;;;;;;5035380;28;20022;-53
2022/01/02 07:17:31;;;;;;;38.03;16.70;;;8.90;99.90;;;;;;5035730;28;20033;-54
2022/01/02 07:19:56;;;;;;;41.05;17.67;;;8.90;99.90;;;;;;5035955;28;20190;-54
2022/01/02 07:22:22;;;;;;;43.55;17.27;;;8.90;99.90;;;;;;5034661;28;20508;-50
2022/01/02 07:24:51;;;;;;;43.45;16.80;;;8.80;99.90;;;;;;5035505;28;20032;-50
2022/01/02 07:27:18;;;;;;;40.60;17.40;;;8.80;99.90;;;;;;5034600;28;20112;-53
2022/01/02 07:29:43;;;;;;;53.15;17.95;;;8.90;99.90;;;;;;5034433;28;20022;-54
2022/01/02 07:32:10;;;;;;;42.65;17.65;;;8.70;99.90;;;;;;5035457;28;20477;-54
2022/01/02 07:34:35;;;;;;;47.70;18.45;;;8.60;99.90;;;;;;5035670;28;20052;-52
2022/01/02 07:37:01;;;;;;;42.58;16.85;;;8.50;99.90;;;;;;5034831;28;20463;-49
2022/01/02 07:39:27;;;;;;;41.63;18.10;;;8.40;99.90;;;;;;5034858;28;20033;-49
2022/01/02 07:41:52;;;;;;;40.22;17.27;;;8.30;99.90;;;;;;5033945;28;20043;-53
2022/01/02 07:44:18;;;;;;;37.13;16.85;;;8.30;99.90;;;;;;5035288;28;20026;-54
2022/01/02 07:46:43;;;;;;;40.47;16.63;;;8.40;99.90;;;;;;5033864;28;20388;-51
2022/01/02 07:49:09;;;;;;;41.85;18.58;;;8.40;99.90;;;;;;5035457;28;20148;-51
2022/01/02 07:51:35;;;;;;;44.85;18.05;;;8.40;99.90;;;;;;5033793;28;20030;-49
2022/01/02 07:54:00;;;;;;;37.13;17.25;;;8.40;99.90;;;;;;5035338;28;20021;-51
2022/01/02 07:56:55;;;;;;;41.45;18.10;;;8.40;99.90;;;;;;5034800;28;20014;-48
2022/01/02 07:59:21;;;;;;;37.63;16.23;;;8.40;99.90;;;;;;5033654;28;20074;-53
2022/01/02 08:01:46;;;;;;;41.15;16.83;;;8.50;99.90;;;;;;5034506;28;20025;-51
2022/01/02 08:04:13;;;;;;;41.25;17.58;;;8.50;99.90;;;;;;5033666;28;20075;-51
2022/01/02 08:06:38;;;;;;;44.67;18.13;;;8.50;99.90;;;;;;5033451;28;20032;-49
2022/01/02 08:09:05;;;;;;;43.67;18.05;;;8.50;99.90;;;;;;5034417;28;20025;-53
2022/01/02 08:11:30;;;;;;;37.50;15.93;;;8.50;99.90;;;;;;5034938;28;20025;-52
2022/01/02 08:13:56;;;;;;;38.97;16.45;;;8.60;99.90;;;;;;5023987;28;20025;-53
2022/01/02 08:16:22;;;;;;;34.92;15.57;;;8.60;99.90;;;;;;5013419;28;20022;-54
2022/01/02 08:18:47;;;;;;;40.13;18.38;;;8.60;99.90;;;;;;5013856;28;20037;-51
2022/01/02 08:21:13;;;;;;;38.97;16.55;;;8.60;99.90;;;;;;5014668;28;20040;-53
2022/01/02 08:23:38;;;;;;;35.92;16.05;;;8.50;99.90;;;;;;5014698;28;20026;-53
2022/01/02 08:26:04;;;;;;;41.92;19.13;;;8.60;99.90;;;;;;5013406;28;20025;-51
2022/01/02 08:28:30;;;;;;;35.47;17.13;;;8.60;99.90;;;;;;5014558;28;20046;-51
2022/01/02 08:30:55;;;;;;;40.08;17.58;;;8.70;99.90;;;;;;5014973;28;20109;-54
2022/01/02 08:33:21;;;;;;;37.13;17.92;;;8.70;99.90;;;;;;5013263;28;20022;-53
2022/01/02 08:35:48;;;;;;;37.83;17.08;;;8.80;99.90;;;;;;5013107;28;20033;-51
2022/01/02 08:38:14;;;;;;;37.67;16.73;;;8.60;99.90;;;;;;5013449;28;20096;-49
2022/01/02 08:40:40;;;;;;;43.28;18.02;;;8.60;99.90;;;;;;5014674;28;20018;-51
2022/01/02 08:43:07;;;;;;;36.75;18.52;;;8.60;99.90;;;;;;5014656;28;20136;-52
2022/01/02 08:45:33;;;;;;;40.30;17.55;;;8.60;99.90;;;;;;5014222;28;20022;-53
2022/01/02 08:47:59;;;;;;;36.97;18.52;;;8.60;99.90;;;;;;5014172;28;20104;-52
2022/01/02 08:50:25;;;;;;;35.08;17.35;;;8.60;99.90;;;;;;5012664;28;20512;-52
2022/01/02 08:52:51;;;;;;;39.50;18.05;;;8.60;99.90;;;;;;5014799;28;20026;-51
2022/01/02 08:55:16;;;;;;;35.50;17.80;;;8.60;99.90;;;;;;5014265;28;20022;-55
2022/01/02 08:57:42;;;;;;;37.03;16.60;;;8.50;99.90;;;;;;5014438;28;20141;-49
2022/01/02 09:00:09;;;;;;;34.40;16.60;;;8.60;99.90;;;;;;5014605;28;20033;-53
2022/01/02 09:02:35;;;;;;;35.78;17.38;;;8.80;99.90;;;;;;5012854;28;20061;-54
2022/01/02 09:05:01;;;;;;;33.53;16.35;;;8.90;99.90;;;;;;5028317;28;20064;-49
2022/01/02 09:07:26;;;;;;;36.22;16.75;;;8.90;99.90;;;;;;5032594;28;20595;-50
2022/01/02 09:09:52;;;;;;;37.47;16.98;;;8.80;99.90;;;;;;5033490;28;20112;-50
2022/01/02 09:12:18;;;;;;;32.25;16.20;;;8.80;99.90;;;;;;5033594;28;20104;-50
2022/01/02 09:14:44;;;;;;;32.90;15.00;;;8.80;99.90;;;;;;5033308;28;20017;-48
2022/01/02 09:17:10;;;;;;;29.60;15.10;;;8.70;99.90;;;;;;5032233;28;20480;-49
2022/01/02 09:19:35;;;;;;;34.90;16.45;;;8.70;99.90;;;;;;5032245;28;20037;-50
2022/01/02 09:22:01;;;;;;;33.38;15.40;;;8.60;99.90;;;;;;5032562;28;20017;-49
2022/01/02 09:24:27;;;;;;;29.98;14.63;;;8.60;99.90;;;;;;5033089;28;20032;-53
2022/01/02 09:26:52;;;;;;;30.65;14.55;;;8.70;99.90;;;;;;5033469;28;20026;-52
2022/01/02 09:29:18;;;;;;;31.35;15.07;;;8.60;99.90;;;;;;5032917;28;20025;-50
2022/01/02 09:31:44;;;;;;;27.90;14.38;;;8.60;99.90;;;;;;5033829;28;20032;-50
2022/01/02 09:34:09;;;;;;;28.67;14.25;;;8.60;99.90;;;;;;5032076;28;20022;-53
2022/01/02 09:36:36;;;;;;;34.58;15.23;;;8.70;99.90;;;;;;5033209;28;20018;-48
2022/01/02 09:39:03;;;;;;;34.35;17.05;;;8.70;99.90;;;;;;5032031;28;20057;-49
2022/01/02 09:41:31;;;;;;;32.72;14.90;;;8.70;99.90;;;;;;5032033;28;20116;-50
2022/01/02 09:43:56;;;;;;;33.25;15.30;;;8.60;99.90;;;;;;5033089;28;20022;-52
2022/01/02 09:46:24;;;;;;;27.95;15.15;;;8.70;99.90;;;;;;5033568;28;20361;-48
2022/01/02 09:48:51;;;;;;;32.70;16.92;;;8.50;99.90;;;;;;5032481;28;20038;-48
2022/01/02 09:51:19;;;;;;;27.33;14.68;;;8.50;99.90;;;;;;5031700;28;20034;-49
2022/01/02 09:53:47;;;;;;;35.25;16.40;;;8.50;99.90;;;;;;5033401;28;20029;-48
2022/01/02 09:56:14;;;;;;;26.42;13.75;;;8.50;99.90;;;;;;5033378;28;20018;-49
2022/01/02 09:58:42;;;;;;;22.02;12.90;;;8.50;99.90;;;;;;5033131;28;20361;-50
2022/01/02 10:01:17;;;;;;;29.55;14.55;;;8.80;99.90;;;;;;5034620;28;20037;-49
2022/01/02 10:03:45;;;;;;;32.22;13.15;;;9.00;99.90;;;;;;5037456;28;20057;-49
2022/01/02 10:06:11;;;;;;;24.08;12.25;;;9.10;99.90;;;;;;5035671;28;20028;-52
2022/01/02 10:08:37;;;;;;;23.17;11.07;;;8.90;99.90;;;;;;5036034;28;20211;-51
2022/01/02 10:11:16;;;;;;;21.48;11.30;;;9.00;99.90;;;;;;5036185;28;20071;-50
2022/01/02 10:13:49;;;;;;;19.90;10.40;;;9.00;99.90;;;;;;5036038;28;20044;-50
2022/01/02 10:16:34;;;;;;;24.17;11.10;;;9.20;99.90;;;;;;5037159;28;20045;-50
2022/01/02 10:25:55;;;;;;;22.20;10.65;;;9.60;99.90;;;;;;5037119;28;20029;-49
2022/01/02 10:28:26;;;;;;;19.70;8.73;;;9.70;99.90;;;;;;5036642;28;20017;-52
2022/01/02 10:31:00;;;;;;;19.95;9.98;;;9.70;99.90;;;;;;5035389;28;20026;-50
2022/01/02 10:33:29;;;;;;;19.95;10.65;;;9.50;99.90;;;;;;5036681;28;20096;-50
2022/01/02 10:36:01;;;;;;;18.00;8.50;;;9.40;99.90;;;;;;5035171;28;20124;-50
2022/01/02 10:38:28;;;;;;;18.70;9.70;;;9.10;99.90;;;;;;5035199;28;20092;-50
2022/01/02 10:40:54;;;;;;;16.83;9.35;;;9.10;99.90;;;;;;5036741;28;20033;-50
2022/01/02 10:43:27;;;;;;;18.30;9.23;;;9.10;99.90;;;;;;5036387;28;20075;-51
2022/01/02 10:45:55;;;;;;;15.75;9.52;;;9.00;99.90;;;;;;5036466;28;20025;-53
2022/01/02 10:48:33;;;;;;;19.42;9.45;;;9.00;99.90;;;;;;5035065;28;20022;-53
2022/01/02 10:51:00;;;;;;;22.23;9.10;;;8.90;99.90;;;;;;5036281;28;20055;-50
2022/01/02 10:53:26;;;;;;;15.55;8.27;;;8.70;99.90;;;;;;5035530;28;20021;-52
2022/01/02 10:55:52;;;;;;;14.70;7.80;;;8.80;99.90;;;;;;5034905;28;20017;-53
2022/01/02 10:58:18;;;;;;;15.93;8.55;;;8.80;99.90;;;;;;5036045;28;20021;-52
2022/01/02 11:00:44;;;;;;;16.33;8.38;;;8.90;99.90;;;;;;5024100;28;20022;-50
2022/01/02 11:03:12;;;;;;;18.23;9.00;;;9.00;99.90;;;;;;5014814;28;20032;-52
2022/01/02 11:05:41;;;;;;;20.48;9.35;;;8.80;99.90;;;;;;5014752;28;20225;-51
2022/01/02 11:08:21;;;;;;;19.45;9.25;;;8.70;99.90;;;;;;5014814;28;20032;-51
2022/01/02 11:11:18;;;;;;;18.30;9.63;;;8.70;99.90;;;;;;5016302;28;20029;-49
2022/01/02 11:14:24;;;;;;;18.35;8.65;;;8.60;99.90;;;;;;5015371;28;20022;-52
2022/01/02 11:16:51;;;;;;;16.38;8.02;;;8.60;99.90;;;;;;5016462;28;20018;-53
2022/01/02 11:19:35;;;;;;;16.63;8.27;;;8.60;99.90;;;;;;5014613;28;20112;-53
2022/01/02 11:22:03;;;;;;;15.55;8.10;;;8.70;99.90;;;;;;5035535;28;20036;-51
2022/01/02 11:24:38;;;;;;;14.40;7.82;;;8.80;99.90;;;;;;5034430;28;20107;-48
2022/01/02 11:27:19;;;;;;;16.73;7.65;;;8.90;99.90;;;;;;5034256;28;20025;-52
2022/01/02 11:29:45;;;;;;;15.65;8.57;;;9.10;99.90;;;;;;5034026;28;20053;-49
2022/01/02 11:32:22;;;;;;;14.40;7.60;;;9.20;99.90;;;;;;5034560;28;20068;-52
2022/01/02 11:34:48;;;;;;;20.55;9.38;;;9.10;99.90;;;;;;5024765;28;20018;-48
2022/01/02 11:37:27;;;;;;;15.07;7.97;;;9.00;99.90;;;;;;5015484;28;20033;-51
2022/01/02 11:39:58;;;;;;;20.25;9.02;;;8.80;99.90;;;;;;5028313;28;20032;-49
2022/01/02 11:42:41;;;;;;;18.88;9.23;;;8.70;99.90;;;;;;5023944;28;20026;-49
2022/01/02 11:45:27;;;;;;;17.45;8.65;;;8.60;99.90;;;;;;5015212;28;20026;-54
2022/01/02 11:48:30;;;;;;;16.40;8.60;;;8.60;99.90;;;;;;5029671;28;20033;-51
2022/01/02 11:50:56;;;;;;;18.55;9.00;;;8.60;99.90;;;;;;5023187;28;20038;-50
2022/01/02 11:53:27;;;;;;;14.63;8.18;;;8.70;99.90;;;;;;5035462;28;20025;-51
2022/01/02 11:55:54;;;;;;;19.23;9.13;;;8.70;99.90;;;;;;5035280;28;20029;-47
2022/01/02 11:58:47;;;;;;;16.05;8.75;;;8.60;99.90;;;;;;5033670;28;20025;-49
2022/01/02 12:01:49;;;;;;;19.80;9.15;;;8.80;99.90;;;;;;5015303;28;20120;-49
2022/01/02 12:04:15;;;;;;;19.50;8.80;;;8.90;99.90;;;;;;5015179;28;20097;-46
2022/01/02 12:06:45;;;;;;;12.05;7.28;;;9.10;99.90;;;;;;5013587;28;20032;-49
2022/01/02 12:09:36;;;;;;;16.20;9.13;;;9.30;99.90;;;;;;5013856;28;20029;-52
2022/01/02 12:12:05;;;;;;;16.42;8.10;;;9.50;99.90;;;;;;5022127;28;20029;-52
2022/01/02 12:14:31;;;;;;;16.45;8.60;;;9.70;99.90;;;;;;5034648;28;20021;-49
2022/01/02 12:17:08;;;;;;;14.52;8.90;;;9.90;99.90;;;;;;5035200;28;20034;-53
2022/01/02 12:20:04;;;;;;;18.17;8.70;;;10.00;99.90;;;;;;5033467;28;20072;-51
2022/01/02 12:22:41;;;;;;;17.23;8.18;;;10.30;99.90;;;;;;5034641;28;20021;-51
2022/01/02 12:25:19;;;;;;;14.40;8.10;;;10.50;99.90;;;;;;5032830;28;20064;-52
2022/01/02 12:27:46;;;;;;;12.55;7.28;;;10.70;99.90;;;;;;5032776;28;20053;-52
2022/01/02 12:30:14;;;;;;;16.02;8.15;;;10.90;99.90;;;;;;5033067;28;20033;-51
2022/01/02 12:32:41;;;;;;;16.00;6.95;;;11.10;99.90;;;;;;5033101;28;20032;-52
2022/01/02 12:35:16;;;;;;;13.88;6.97;;;11.20;99.90;;;;;;5033000;28;20076;-56
2022/01/02 12:37:42;;;;;;;13.95;6.13;;;11.10;99.90;;;;;;5033109;28;20026;-48
2022/01/02 12:40:16;;;;;;;18.20;6.78;;;11.20;99.90;;;;;;5033604;28;20029;-51
2022/01/02 12:42:42;;;;;;;15.77;7.97;;;11.10;99.90;;;;;;5034108;28;20052;-52
2022/01/02 12:45:08;;;;;;;16.58;8.40;;;11.10;99.90;;;;;;5034023;28;20033;-49
2022/01/02 12:47:34;;;;;;;15.95;7.60;;;10.90;99.90;;;;;;5033856;28;20079;-50
2022/01/02 12:50:00;;;;;;;18.80;8.70;;;10.60;99.90;;;;;;5033930;28;20068;-52
2022/01/02 12:52:25;;;;;;;14.63;8.73;;;10.40;99.90;;;;;;5034136;28;20029;-47
2022/01/02 12:54:51;;;;;;;17.48;8.80;;;10.30;99.90;;;;;;5034209;28;20025;-49
2022/01/02 12:57:18;;;;;;;15.50;7.90;;;10.30;99.90;;;;;;5032567;28;20033;-49
2022/01/02 12:59:48;;;;;;;14.63;7.25;;;10.30;99.90;;;;;;5033765;28;20036;-51